Time;durP1;ratioP1;P1;durP2;ratioP2;P2;SDS_P1;SDS_P2;PMS_P1;PMS_P2;Temp;Humidity;BMP_temperature;BMP_pressure;BME280_temperature;BME280_humidity;BME280_pressure;Samples;Min_cycle;Max_cycle;Signal;HPM_P1;HPM_P2
2023/09/07 00:00:10;;;;;;;0.53;0.53;;;;;;;;;;4964848;28;59409;-68
2023/09/07 00:02:35;;;;;;;0.47;0.47;;;;;;;;;;4963413;28;59284;-69
2023/09/07 00:05:00;;;;;;;0.50;0.50;;;;;;;;;;4964907;28;59201;-72
2023/09/07 00:07:25;;;;;;;0.77;0.55;;;;;;;;;;4965134;28;60555;-72
2023/09/07 00:09:51;;;;;;;0.70;0.70;;;;;;;;;;4966174;28;59833;-72
2023/09/07 00:12:16;;;;;;;0.63;0.63;;;;;;;;;;4968272;28;59167;-73
2023/09/07 00:14:41;;;;;;;0.65;0.60;;;;;;;;;;4967771;28;58988;-72
2023/09/07 00:17:07;;;;;;;0.80;0.80;;;;;;;;;;4969883;28;60615;-72
2023/09/07 00:19:33;;;;;;;0.98;0.80;;;;;;;;;;4969621;28;59204;-72
2023/09/07 00:21:58;;;;;;;0.80;0.80;;;;;;;;;;4971423;28;59444;-72
2023/09/07 00:24:24;;;;;;;0.40;0.40;;;;;;;;;;4971711;28;59456;-72
2023/09/07 00:26:49;;;;;;;1.27;0.73;;;;;;;;;;4966516;28;59580;-72
2023/09/07 00:29:14;;;;;;;0.80;0.80;;;;;;;;;;4970707;28;60188;-72
2023/09/07 00:31:41;;;;;;;0.60;0.60;;;;;;;;;;4967366;28;60768;-72
2023/09/07 00:34:06;;;;;;;1.00;0.50;;;;;;;;;;4968621;28;59306;-72
2023/09/07 00:36:31;;;;;;;0.60;0.60;;;;;;;;;;4970467;28;59674;-72
2023/09/07 00:38:56;;;;;;;1.23;1.13;;;;;;;;;;4972133;28;59486;-73
2023/09/07 00:41:21;;;;;;;0.82;0.82;;;;;;;;;;4969695;28;59314;-72
2023/09/07 00:43:46;;;;;;;0.73;0.73;;;;;;;;;;4974325;28;60071;-72
2023/09/07 00:46:12;;;;;;;0.95;0.80;;;;;;;;;;4971250;28;59566;-72
2023/09/07 00:48:37;;;;;;;0.70;0.70;;;;;;;;;;4972049;28;59529;-72
2023/09/07 00:51:03;;;;;;;0.60;0.60;;;;;;;;;;4970282;28;60008;-72
2023/09/07 00:53:28;;;;;;;0.63;0.63;;;;;;;;;;4970032;28;59146;-72
2023/09/07 00:55:54;;;;;;;0.90;0.70;;;;;;;;;;4971030;28;60311;-72
2023/09/07 00:58:20;;;;;;;0.70;0.70;;;;;;;;;;4971882;28;59426;-72
2023/09/07 01:00:45;;;;;;;1.23;0.70;;;;;;;;;;4971019;28;59386;-72
2023/09/07 01:03:11;;;;;;;1.27;0.70;;;;;;;;;;4967853;28;59224;-72
2023/09/07 01:05:48;;;;;;;0.67;0.67;;;;;;;;;;4971319;28;59611;-72
2023/09/07 01:08:18;;;;;;;0.60;0.60;;;;;;;;;;4968159;28;60277;-71
2023/09/07 01:10:43;;;;;;;0.60;0.60;;;;;;;;;;4970612;28;59655;-72
2023/09/07 01:13:08;;;;;;;0.70;0.70;;;;;;;;;;4969924;28;59272;-72
2023/09/07 01:15:33;;;;;;;0.60;0.55;;;;;;;;;;4971774;28;60185;-68
2023/09/07 01:17:59;;;;;;;0.57;0.57;;;;;;;;;;4966124;28;59201;-70
2023/09/07 01:20:25;;;;;;;0.50;0.50;;;;;;;;;;4971558;28;59371;-68
2023/09/07 01:22:51;;;;;;;0.55;0.55;;;;;;;;;;4970141;28;59344;-69
2023/09/07 01:25:16;;;;;;;0.60;0.60;;;;;;;;;;4971239;28;59415;-68
2023/09/07 01:27:41;;;;;;;0.65;0.65;;;;;;;;;;4969532;28;59247;-68
2023/09/07 01:30:07;;;;;;;0.85;0.60;;;;;;;;;;4968916;28;63273;-68
2023/09/07 01:32:32;;;;;;;0.93;0.82;;;;;;;;;;4969128;28;59336;-68
2023/09/07 01:34:57;;;;;;;0.60;0.60;;;;;;;;;;4969979;28;59578;-70
2023/09/07 01:37:23;;;;;;;0.70;0.70;;;;;;;;;;4971213;28;59372;-69
2023/09/07 01:39:49;;;;;;;0.53;0.53;;;;;;;;;;4971057;28;59581;-69
2023/09/07 01:42:14;;;;;;;0.70;0.70;;;;;;;;;;4971798;28;59655;-68
2023/09/07 01:44:39;;;;;;;0.70;0.70;;;;;;;;;;4967160;28;59262;-70
2023/09/07 01:47:04;;;;;;;0.70;0.60;;;;;;;;;;4967885;28;59170;-68
2023/09/07 01:49:30;;;;;;;0.63;0.63;;;;;;;;;;4971773;28;59516;-69
2023/09/07 01:51:55;;;;;;;0.63;0.60;;;;;;;;;;4967911;28;60195;-69
2023/09/07 01:54:23;;;;;;;0.73;0.73;;;;;;;;;;4974661;28;59204;-68
2023/09/07 01:56:48;;;;;;;0.68;0.63;;;;;;;;;;4966753;28;59410;-69
2023/09/07 01:59:13;;;;;;;0.80;0.80;;;;;;;;;;4968179;28;59230;-68
2023/09/07 02:01:40;;;;;;;0.73;0.60;;;;;;;;;;4967596;28;60307;-68
2023/09/07 02:04:05;;;;;;;0.82;0.43;;;;;;;;;;4946838;28;60590;-69
2023/09/07 02:06:30;;;;;;;0.40;0.40;;;;;;;;;;4966979;28;59237;-69
2023/09/07 02:08:55;;;;;;;0.77;0.77;;;;;;;;;;4970640;28;59217;-68
2023/09/07 02:11:20;;;;;;;0.65;0.65;;;;;;;;;;4969805;28;61031;-68
2023/09/07 02:13:46;;;;;;;0.57;0.50;;;;;;;;;;4968088;28;59384;-68
2023/09/07 02:16:11;;;;;;;0.65;0.52;;;;;;;;;;4969222;28;60610;-68
2023/09/07 02:18:43;;;;;;;0.47;0.47;;;;;;;;;;4969647;28;59661;-68
2023/09/07 02:21:09;;;;;;;0.80;0.80;;;;;;;;;;4968228;28;64398;-67
2023/09/07 02:23:35;;;;;;;0.60;0.60;;;;;;;;;;4970115;28;59250;-72
2023/09/07 02:26:00;;;;;;;0.90;0.80;;;;;;;;;;4967098;28;59255;-71
2023/09/07 02:28:25;;;;;;;0.93;0.75;;;;;;;;;;4970627;28;59218;-73
2023/09/07 02:30:51;;;;;;;0.67;0.67;;;;;;;;;;4969087;28;59459;-72
2023/09/07 02:33:16;;;;;;;0.68;0.50;;;;;;;;;;4971774;28;59207;-72
2023/09/07 02:35:41;;;;;;;0.70;0.70;;;;;;;;;;4967301;28;59417;-71
2023/09/07 02:38:06;;;;;;;0.60;0.60;;;;;;;;;;4969540;28;59441;-73
2023/09/07 02:40:31;;;;;;;0.80;0.80;;;;;;;;;;4968917;28;60066;-72
2023/09/07 02:42:57;;;;;;;1.13;1.02;;;;;;;;;;4969049;28;59213;-72
2023/09/07 02:45:22;;;;;;;0.80;0.80;;;;;;;;;;4969754;28;59253;-72
2023/09/07 02:47:50;;;;;;;1.20;0.68;;;;;;;;;;4969494;28;60456;-72
2023/09/07 02:50:17;;;;;;;0.60;0.60;;;;;;;;;;4969778;28;59346;-72
2023/09/07 02:52:42;;;;;;;0.60;0.60;;;;;;;;;;4968208;28;59141;-72
2023/09/07 02:55:07;;;;;;;0.80;0.80;;;;;;;;;;4971020;28;59263;-72
2023/09/07 02:57:34;;;;;;;0.63;0.63;;;;;;;;;;4969097;28;59498;-72
2023/09/07 02:59:59;;;;;;;0.68;0.60;;;;;;;;;;4971142;28;59227;-72
2023/09/07 03:02:24;;;;;;;0.88;0.80;;;;;;;;;;4966851;28;59319;-72
2023/09/07 03:04:53;;;;;;;0.88;0.73;;;;;;;;;;4970180;28;59303;-72
2023/09/07 03:07:18;;;;;;;1.05;0.70;;;;;;;;;;4970267;28;59557;-72
2023/09/07 03:09:44;;;;;;;0.90;0.90;;;;;;;;;;4968049;28;59174;-72
2023/09/07 03:12:09;;;;;;;0.75;0.57;;;;;;;;;;4970412;28;59292;-72
2023/09/07 03:14:35;;;;;;;1.05;0.52;;;;;;;;;;4966748;28;59266;-71
2023/09/07 03:17:00;;;;;;;0.70;0.65;;;;;;;;;;4964210;28;59193;-71
2023/09/07 03:19:25;;;;;;;1.08;0.82;;;;;;;;;;4969701;28;59480;-72
2023/09/07 03:21:50;;;;;;;0.50;0.50;;;;;;;;;;4967247;28;59937;-72
2023/09/07 03:24:16;;;;;;;0.50;0.50;;;;;;;;;;4969685;28;59219;-71
2023/09/07 03:26:41;;;;;;;0.50;0.50;;;;;;;;;;4966640;28;60457;-72
2023/09/07 03:29:06;;;;;;;0.90;0.90;;;;;;;;;;4969312;28;59380;-72
2023/09/07 03:31:31;;;;;;;0.60;0.60;;;;;;;;;;4970248;28;59255;-72
2023/09/07 03:33:56;;;;;;;0.63;0.63;;;;;;;;;;4968250;28;59645;-69
2023/09/07 03:36:21;;;;;;;0.60;0.60;;;;;;;;;;4953487;28;59328;-68
2023/09/07 03:38:47;;;;;;;0.63;0.60;;;;;;;;;;4969876;28;59241;-68
2023/09/07 03:41:12;;;;;;;1.10;1.00;;;;;;;;;;4972074;28;59524;-68
2023/09/07 03:43:37;;;;;;;0.80;0.80;;;;;;;;;;4971880;28;59601;-68
2023/09/07 03:46:02;;;;;;;0.70;0.60;;;;;;;;;;4973900;28;59534;-68
2023/09/07 03:48:27;;;;;;;0.83;0.83;;;;;;;;;;4976886;28;59155;-67
2023/09/07 03:50:52;;;;;;;0.70;0.70;;;;;;;;;;4978250;28;59257;-68
2023/09/07 03:53:18;;;;;;;0.67;0.43;;;;;;;;;;4981504;28;59497;-68
2023/09/07 03:55:43;;;;;;;0.60;0.60;;;;;;;;;;4978683;28;59236;-69
2023/09/07 03:58:10;;;;;;;0.80;0.80;;;;;;;;;;4978039;28;59559;-68
2023/09/07 04:00:37;;;;;;;0.50;0.50;;;;;;;;;;4976996;28;60409;-69
2023/09/07 04:03:02;;;;;;;0.70;0.70;;;;;;;;;;4979119;28;59190;-69
2023/09/07 04:05:28;;;;;;;1.00;1.00;;;;;;;;;;4978813;28;59362;-68
2023/09/07 04:07:53;;;;;;;0.90;0.90;;;;;;;;;;4976832;28;59437;-68
2023/09/07 04:10:18;;;;;;;0.80;0.80;;;;;;;;;;4978035;28;59244;-68
2023/09/07 04:12:43;;;;;;;0.60;0.60;;;;;;;;;;4973876;28;61125;-70
2023/09/07 04:15:08;;;;;;;0.82;0.82;;;;;;;;;;4974314;28;59376;-68
2023/09/07 04:17:40;;;;;;;1.13;0.82;;;;;;;;;;4956083;28;59262;-68
2023/09/07 04:20:05;;;;;;;0.50;0.50;;;;;;;;;;4974256;28;60503;-69
2023/09/07 04:22:31;;;;;;;1.17;0.65;;;;;;;;;;4968404;28;59250;-69
2023/09/07 04:24:56;;;;;;;0.80;0.80;;;;;;;;;;4976661;28;59280;-68
2023/09/07 04:27:21;;;;;;;0.70;0.70;;;;;;;;;;4976094;28;59407;-69
2023/09/07 04:29:47;;;;;;;0.80;0.80;;;;;;;;;;4964456;28;59165;-69
2023/09/07 04:32:12;;;;;;;0.70;0.70;;;;;;;;;;4979611;28;60549;-68
2023/09/07 04:34:37;;;;;;;0.77;0.77;;;;;;;;;;4976549;28;59229;-68
2023/09/07 04:37:02;;;;;;;1.03;0.80;;;;;;;;;;4976151;28;59605;-70
2023/09/07 04:39:27;;;;;;;1.43;1.33;;;;;;;;;;4977866;28;61107;-68
2023/09/07 04:41:52;;;;;;;1.13;1.02;;;;;;;;;;4977005;28;59297;-68
2023/09/07 04:44:17;;;;;;;1.00;0.90;;;;;;;;;;4979412;28;59273;-72
2023/09/07 04:46:43;;;;;;;1.10;1.10;;;;;;;;;;4969198;28;59585;-71
2023/09/07 04:49:08;;;;;;;0.90;0.90;;;;;;;;;;4955025;28;59390;-71
2023/09/07 04:51:33;;;;;;;3.03;1.73;;;;;;;;;;4973810;28;60480;-72
2023/09/07 04:53:58;;;;;;;7.93;1.83;;;;;;;;;;4976137;28;59524;-72
2023/09/07 04:56:25;;;;;;;4.80;2.00;;;;;;;;;;4977924;28;59541;-72
2023/09/07 04:58:50;;;;;;;4.90;2.00;;;;;;;;;;4974545;28;60751;-72
2023/09/07 05:01:15;;;;;;;6.13;2.23;;;;;;;;;;4966466;28;59282;-72
2023/09/07 05:03:41;;;;;;;3.15;2.25;;;;;;;;;;4975531;28;59114;-72
2023/09/07 05:06:06;;;;;;;6.43;1.67;;;;;;;;;;4972103;28;60314;-72
2023/09/07 05:08:31;;;;;;;6.50;1.63;;;;;;;;;;4972187;28;59134;-72
2023/09/07 05:11:00;;;;;;;3.73;1.30;;;;;;;;;;4974927;28;59449;-72
2023/09/07 05:13:25;;;;;;;1.48;1.10;;;;;;;;;;4972737;28;59437;-73
2023/09/07 05:15:51;;;;;;;1.70;1.20;;;;;;;;;;4972275;28;59133;-72
2023/09/07 05:18:16;;;;;;;2.50;1.27;;;;;;;;;;4976114;28;59187;-72
2023/09/07 05:20:42;;;;;;;3.38;1.63;;;;;;;;;;4972204;28;59950;-72
2023/09/07 05:23:07;;;;;;;1.30;1.20;;;;;;;;;;4973102;28;59292;-72
2023/09/07 05:25:32;;;;;;;1.77;1.60;;;;;;;;;;4955372;28;60297;-72
2023/09/07 05:27:57;;;;;;;2.70;1.20;;;;;;;;;;4972238;28;59328;-72
2023/09/07 05:30:22;;;;;;;1.37;1.10;;;;;;;;;;4974355;28;59719;-72
2023/09/07 05:32:47;;;;;;;1.30;1.20;;;;;;;;;;4971059;28;59453;-72
2023/09/07 05:35:15;;;;;;;10.40;1.70;;;;;;;;;;4975394;28;59251;-72
2023/09/07 05:37:40;;;;;;;3.05;1.73;;;;;;;;;;4969751;28;60630;-72
2023/09/07 05:40:06;;;;;;;3.40;1.40;;;;;;;;;;4969725;28;59381;-71
2023/09/07 05:42:31;;;;;;;2.05;1.50;;;;;;;;;;4975833;28;59383;-72
2023/09/07 05:44:56;;;;;;;1.33;1.08;;;;;;;;;;4971773;28;59918;-71
2023/09/07 05:47:21;;;;;;;1.70;1.60;;;;;;;;;;4972420;28;59509;-72
2023/09/07 05:49:46;;;;;;;2.45;1.40;;;;;;;;;;4971892;28;60222;-71
2023/09/07 05:52:11;;;;;;;7.20;1.50;;;;;;;;;;4974146;28;59308;-72
2023/09/07 05:54:36;;;;;;;1.00;1.00;;;;;;;;;;4973260;28;59200;-69
2023/09/07 05:57:02;;;;;;;2.90;1.10;;;;;;;;;;4973934;28;60082;-69
2023/09/07 05:59:27;;;;;;;2.50;1.33;;;;;;;;;;4974656;28;59456;-70
2023/09/07 06:01:52;;;;;;;2.60;1.60;;;;;;;;;;4974720;28;59093;-69
2023/09/07 06:04:17;;;;;;;5.13;1.27;;;;;;;;;;4973002;28;60989;-69
2023/09/07 06:06:42;;;;;;;2.10;1.10;;;;;;;;;;4972184;28;59539;-69
2023/09/07 06:09:08;;;;;;;1.63;1.30;;;;;;;;;;4977897;28;59592;-68
2023/09/07 06:11:34;;;;;;;1.30;1.27;;;;;;;;;;4970783;28;59563;-69
2023/09/07 06:13:59;;;;;;;2.38;1.42;;;;;;;;;;4974194;28;59367;-68
2023/09/07 06:16:25;;;;;;;1.53;1.43;;;;;;;;;;4974090;28;60392;-69
2023/09/07 06:18:50;;;;;;;1.60;1.50;;;;;;;;;;4973627;28;59139;-69
2023/09/07 06:21:15;;;;;;;2.40;1.30;;;;;;;;;;4975242;28;59456;-69
2023/09/07 06:23:40;;;;;;;2.03;1.50;;;;;;;;;;4970775;28;59766;-69
2023/09/07 06:26:05;;;;;;;2.35;2.08;;;;;;;;;;4971077;28;59209;-69
2023/09/07 06:28:30;;;;;;;3.50;1.20;;;;;;;;;;4958130;28;59188;-68
2023/09/07 06:30:56;;;;;;;1.77;1.67;;;;;;;;;;4972742;28;59240;-68
2023/09/07 06:33:21;;;;;;;1.80;1.50;;;;;;;;;;4955391;28;59408;-68
2023/09/07 06:35:46;;;;;;;1.05;0.95;;;;;;;;;;4972817;28;59947;-69
2023/09/07 06:38:11;;;;;;;1.58;1.48;;;;;;;;;;4971348;28;59512;-69
2023/09/07 06:40:36;;;;;;;1.50;1.40;;;;;;;;;;4972442;28;59218;-68
2023/09/07 06:43:05;;;;;;;2.33;1.70;;;;;;;;;;4974171;28;59273;-68
2023/09/07 06:45:32;;;;;;;1.92;1.20;;;;;;;;;;4972623;28;59366;-69
2023/09/07 06:47:58;;;;;;;2.05;1.60;;;;;;;;;;4974169;28;59253;-69
2023/09/07 06:50:23;;;;;;;1.33;1.23;;;;;;;;;;4974292;28;59253;-68
2023/09/07 06:52:48;;;;;;;1.17;1.07;;;;;;;;;;4972706;28;59552;-68
2023/09/07 06:55:13;;;;;;;1.73;1.42;;;;;;;;;;4971910;28;59353;-70
2023/09/07 06:57:38;;;;;;;1.33;1.10;;;;;;;;;;4972243;28;59355;-68
2023/09/07 07:00:05;;;;;;;3.08;1.38;;;;;;;;;;4976387;28;59310;-68
2023/09/07 07:02:30;;;;;;;1.40;1.30;;;;;;;;;;4970634;28;61571;-68
2023/09/07 07:04:55;;;;;;;1.35;1.25;;;;;;;;;;4972817;28;59305;-69
2023/09/07 07:07:21;;;;;;;2.90;1.50;;;;;;;;;;4969629;28;59322;-68
2023/09/07 07:09:46;;;;;;;2.07;1.30;;;;;;;;;;4973686;28;61136;-69
2023/09/07 07:12:12;;;;;;;1.30;1.20;;;;;;;;;;4972725;28;59300;-70
2023/09/07 07:14:37;;;;;;;1.65;1.50;;;;;;;;;;4974695;28;59224;-68
2023/09/07 07:17:04;;;;;;;1.20;1.10;;;;;;;;;;4973497;28;59451;-69
2023/09/07 07:19:29;;;;;;;1.30;1.20;;;;;;;;;;4973136;28;59243;-68
2023/09/07 07:21:54;;;;;;;1.90;0.90;;;;;;;;;;4971717;28;60425;-68
2023/09/07 07:24:20;;;;;;;1.63;1.53;;;;;;;;;;4971642;28;59249;-70
2023/09/07 07:26:45;;;;;;;1.05;1.00;;;;;;;;;;4974012;28;59343;-70
2023/09/07 07:29:10;;;;;;;1.95;1.20;;;;;;;;;;4973027;28;60819;-68
2023/09/07 07:31:36;;;;;;;1.27;1.17;;;;;;;;;;4972748;28;59742;-69
2023/09/07 07:34:01;;;;;;;1.80;1.70;;;;;;;;;;4972849;28;59107;-69
2023/09/07 07:36:26;;;;;;;1.73;1.63;;;;;;;;;;4974334;28;59473;-69
2023/09/07 07:38:51;;;;;;;1.17;1.08;;;;;;;;;;4972665;28;59297;-69
2023/09/07 07:41:16;;;;;;;1.98;1.48;;;;;;;;;;4973648;28;59235;-70
2023/09/07 07:43:41;;;;;;;2.30;1.10;;;;;;;;;;4969833;28;59596;-68
2023/09/07 07:46:07;;;;;;;1.77;1.48;;;;;;;;;;4970722;28;59203;-69
2023/09/07 07:48:35;;;;;;;1.60;1.50;;;;;;;;;;4972403;28;59556;-68
2023/09/07 07:51:02;;;;;;;1.30;1.20;;;;;;;;;;4970849;28;59402;-69
2023/09/07 07:53:28;;;;;;;1.92;1.67;;;;;;;;;;4968962;28;59410;-68
2023/09/07 07:55:53;;;;;;;1.40;1.30;;;;;;;;;;4968972;28;60061;-69
2023/09/07 07:58:18;;;;;;;2.37;1.60;;;;;;;;;;4972767;28;59476;-70
2023/09/07 08:00:47;;;;;;;1.92;1.83;;;;;;;;;;4971534;28;60949;-68
2023/09/07 08:03:12;;;;;;;1.30;1.20;;;;;;;;;;4972646;28;59272;-68
2023/09/07 08:05:39;;;;;;;2.05;1.30;;;;;;;;;;4969846;28;59188;-68
2023/09/07 08:08:04;;;;;;;1.63;1.52;;;;;;;;;;4970978;28;60255;-69
2023/09/07 08:10:33;;;;;;;1.67;1.40;;;;;;;;;;4971670;28;59653;-68
2023/09/07 08:12:58;;;;;;;1.63;1.52;;;;;;;;;;4971329;28;59148;-69
2023/09/07 08:15:24;;;;;;;2.08;1.73;;;;;;;;;;4971574;28;60450;-69
2023/09/07 08:17:49;;;;;;;1.50;1.40;;;;;;;;;;4968798;28;59399;-69
2023/09/07 08:20:16;;;;;;;1.43;1.33;;;;;;;;;;4973519;28;59277;-69
2023/09/07 08:22:42;;;;;;;1.38;1.27;;;;;;;;;;4969587;28;59336;-69
2023/09/07 08:25:08;;;;;;;2.35;1.85;;;;;;;;;;4972157;28;59174;-72
2023/09/07 08:27:33;;;;;;;1.70;1.50;;;;;;;;;;4970392;28;60862;-72
2023/09/07 08:29:59;;;;;;;1.40;1.30;;;;;;;;;;4971150;28;59339;-72
2023/09/07 08:32:24;;;;;;;1.70;1.60;;;;;;;;;;4971262;28;59423;-72
2023/09/07 08:34:49;;;;;;;1.80;0.93;;;;;;;;;;4969772;28;59313;-72
2023/09/07 08:37:14;;;;;;;1.88;1.77;;;;;;;;;;4972530;28;59195;-72
2023/09/07 08:39:39;;;;;;;1.70;1.40;;;;;;;;;;4972465;28;59176;-72
2023/09/07 08:42:05;;;;;;;1.85;1.40;;;;;;;;;;4974527;28;59268;-72
2023/09/07 08:44:32;;;;;;;1.53;1.43;;;;;;;;;;4957156;28;59155;-71
2023/09/07 08:46:59;;;;;;;1.60;1.50;;;;;;;;;;4971585;28;60897;-72
2023/09/07 08:49:24;;;;;;;1.67;1.50;;;;;;;;;;4972014;28;59661;-72
2023/09/07 08:51:50;;;;;;;1.80;1.70;;;;;;;;;;4974308;28;59443;-72
2023/09/07 08:54:15;;;;;;;2.70;1.33;;;;;;;;;;4975570;28;60369;-72
2023/09/07 08:56:40;;;;;;;2.10;1.60;;;;;;;;;;4973691;28;59223;-72
2023/09/07 08:59:05;;;;;;;1.40;1.30;;;;;;;;;;4973510;28;59173;-72
2023/09/07 09:01:31;;;;;;;1.40;1.30;;;;;;;;;;4973851;28;61589;-72
2023/09/07 09:03:57;;;;;;;1.10;1.00;;;;;;;;;;4972126;28;59889;-72
2023/09/07 09:06:22;;;;;;;1.40;1.30;;;;;;;;;;4973640;28;60447;-72
2023/09/07 09:08:49;;;;;;;1.47;1.37;;;;;;;;;;4973217;28;60296;-71
2023/09/07 09:11:14;;;;;;;1.77;1.67;;;;;;;;;;4972478;28;59510;-72
2023/09/07 09:13:40;;;;;;;1.73;1.38;;;;;;;;;;4972651;28;59387;-72
2023/09/07 09:16:05;;;;;;;1.60;1.27;;;;;;;;;;4971593;28;59466;-72
2023/09/07 09:18:30;;;;;;;1.60;1.50;;;;;;;;;;4972850;28;59311;-72
2023/09/07 09:20:55;;;;;;;1.40;1.30;;;;;;;;;;4975148;28;60303;-72
2023/09/07 09:23:21;;;;;;;1.30;1.20;;;;;;;;;;4969190;28;59389;-69
2023/09/07 09:25:49;;;;;;;1.27;1.20;;;;;;;;;;4972487;28;60449;-68
2023/09/07 09:28:14;;;;;;;;;;;;;;;;;;4973127;28;59181;-68
2023/09/07 09:30:43;;;;;;;1.40;1.30;;;;;;;;;;4973350;28;59242;-69
2023/09/07 09:33:09;;;;;;;1.55;1.42;;;;;;;;;;4974686;28;65501;-69
2023/09/07 09:35:34;;;;;;;1.38;1.27;;;;;;;;;;4973850;28;60116;-72
2023/09/07 09:38:00;;;;;;;1.70;1.60;;;;;;;;;;4970921;28;59273;-72
2023/09/07 09:40:25;;;;;;;1.70;1.58;;;;;;;;;;4975247;28;59620;-72
2023/09/07 09:42:51;;;;;;;1.43;1.33;;;;;;;;;;4973464;28;59511;-72
2023/09/07 09:45:17;;;;;;;1.65;1.55;;;;;;;;;;4971997;28;59264;-72
2023/09/07 09:47:42;;;;;;;1.13;1.07;;;;;;;;;;4972250;28;59272;-72
2023/09/07 09:50:08;;;;;;;1.70;1.35;;;;;;;;;;4974237;28;59240;-72
2023/09/07 09:52:36;;;;;;;1.60;1.23;;;;;;;;;;4974419;28;60259;-72
2023/09/07 09:55:02;;;;;;;1.60;1.48;;;;;;;;;;4972830;28;59281;-72
2023/09/07 09:57:28;;;;;;;2.08;1.50;;;;;;;;;;4974334;28;59268;-72
2023/09/07 09:59:54;;;;;;;1.63;1.52;;;;;;;;;;4970018;28;61670;-72
2023/09/07 10:02:19;;;;;;;1.88;1.70;;;;;;;;;;4974442;28;60261;-72
2023/09/07 10:04:45;;;;;;;1.73;1.63;;;;;;;;;;4973635;28;59161;-72
2023/09/07 10:07:10;;;;;;;1.23;1.13;;;;;;;;;;4970185;28;60276;-72
2023/09/07 10:09:38;;;;;;;1.70;1.60;;;;;;;;;;4976194;28;59267;-72
2023/09/07 10:12:04;;;;;;;1.30;1.25;;;;;;;;;;4972540;28;60555;-72
2023/09/07 10:14:42;;;;;;;1.45;1.35;;;;;;;;;;4970334;28;59564;-72
2023/09/07 10:17:09;;;;;;;1.45;1.35;;;;;;;;;;4976779;28;59385;-72
2023/09/07 10:19:36;;;;;;;1.58;1.48;;;;;;;;;;4973351;28;61520;-72
2023/09/07 10:22:03;;;;;;;1.47;1.37;;;;;;;;;;4955116;28;60618;-72
2023/09/07 10:24:39;;;;;;;2.15;1.95;;;;;;;;;;4970957;28;59223;-72
2023/09/07 10:27:06;;;;;;;1.67;1.58;;;;;;;;;;4973241;28;59233;-72
2023/09/07 10:29:40;;;;;;;2.33;1.63;;;;;;;;;;4972858;28;59400;-72
2023/09/07 10:32:06;;;;;;;1.52;1.42;;;;;;;;;;4974586;28;59547;-72
2023/09/07 10:34:37;;;;;;;1.63;1.52;;;;;;;;;;4973148;28;60842;-69
2023/09/07 10:37:03;;;;;;;1.15;1.15;;;;;;;;;;4975223;28;59077;-71
2023/09/07 10:39:30;;;;;;;1.30;1.20;;;;;;;;;;4976221;28;59318;-69
2023/09/07 10:41:56;;;;;;;1.57;1.47;;;;;;;;;;4973530;28;59371;-69
2023/09/07 10:44:25;;;;;;;1.40;1.30;;;;;;;;;;4976011;28;59261;-70
2023/09/07 10:46:50;;;;;;;1.27;1.17;;;;;;;;;;4973481;28;60605;-69
2023/09/07 10:49:17;;;;;;;1.27;1.17;;;;;;;;;;4973953;28;59271;-69
2023/09/07 10:51:46;;;;;;;1.60;1.50;;;;;;;;;;4976559;28;59173;-69
2023/09/07 10:54:18;;;;;;;1.52;1.40;;;;;;;;;;4973633;28;59358;-68
2023/09/07 10:56:45;;;;;;;1.67;1.58;;;;;;;;;;4972350;28;59287;-68
2023/09/07 10:59:10;;;;;;;1.10;1.10;;;;;;;;;;4970864;28;59843;-68
2023/09/07 11:01:35;;;;;;;1.58;1.48;;;;;;;;;;4972721;28;59366;-69
2023/09/07 11:04:00;;;;;;;1.50;1.40;;;;;;;;;;4973704;28;59293;-68
2023/09/07 11:06:26;;;;;;;1.40;1.30;;;;;;;;;;4957088;28;61506;-69
2023/09/07 11:08:51;;;;;;;1.33;1.23;;;;;;;;;;4973671;28;59320;-69
2023/09/07 11:11:16;;;;;;;1.42;1.33;;;;;;;;;;4974463;28;58474;-68
2023/09/07 11:13:42;;;;;;;1.55;1.45;;;;;;;;;;4976314;28;60102;-68
2023/09/07 11:16:08;;;;;;;1.52;1.40;;;;;;;;;;4974252;28;59293;-70
2023/09/07 11:18:33;;;;;;;1.75;1.65;;;;;;;;;;4977859;28;59381;-69
2023/09/07 11:21:02;;;;;;;1.52;1.42;;;;;;;;;;4972134;28;59285;-68
2023/09/07 11:23:29;;;;;;;1.40;1.30;;;;;;;;;;4972983;28;59100;-70
2023/09/07 11:25:54;;;;;;;1.70;1.60;;;;;;;;;;4970608;28;60624;-69
2023/09/07 11:28:22;;;;;;;1.73;1.63;;;;;;;;;;4972281;28;59271;-69
2023/09/07 11:30:51;;;;;;;1.60;1.50;;;;;;;;;;4972150;28;60130;-69
2023/09/07 11:33:16;;;;;;;1.33;1.23;;;;;;;;;;4971958;28;60085;-69
2023/09/07 11:35:42;;;;;;;1.50;1.40;;;;;;;;;;4970363;28;59432;-69
2023/09/07 11:38:10;;;;;;;1.87;1.77;;;;;;;;;;4972796;28;59813;-69
2023/09/07 11:40:35;;;;;;;;;;;;;;;;;;4973374;28;58747;-70
2023/09/07 11:43:00;;;;;;;1.60;1.50;;;;;;;;;;4973910;28;59204;-68
2023/09/07 11:45:26;;;;;;;1.60;1.47;;;;;;;;;;4970824;28;61373;-72
2023/09/07 11:47:51;;;;;;;1.70;1.60;;;;;;;;;;4968270;28;60014;-74
2023/09/07 11:50:17;;;;;;;2.30;1.50;;;;;;;;;;4973710;28;59272;-74
2023/09/07 11:52:42;;;;;;;1.58;1.48;;;;;;;;;;4971993;28;60547;-74
2023/09/07 11:55:08;;;;;;;1.50;1.40;;;;;;;;;;4972130;28;59444;-69
2023/09/07 11:57:33;;;;;;;1.92;1.50;;;;;;;;;;4970643;28;60370;-70
2023/09/07 11:59:58;;;;;;;1.80;1.70;;;;;;;;;;4969402;28;59307;-69
2023/09/07 12:02:23;;;;;;;1.60;1.50;;;;;;;;;;4974169;28;58495;-70
2023/09/07 12:04:49;;;;;;;1.70;1.60;;;;;;;;;;4976523;28;59265;-71
2023/09/07 12:07:14;;;;;;;1.90;1.80;;;;;;;;;;4970255;28;59966;-71
2023/09/07 12:09:39;;;;;;;1.98;1.88;;;;;;;;;;4977842;28;59230;-70
2023/09/07 12:12:05;;;;;;;2.10;2.00;;;;;;;;;;4976269;28;59507;-69
2023/09/07 12:14:31;;;;;;;1.85;1.75;;;;;;;;;;4974316;28;59218;-71
2023/09/07 12:16:56;;;;;;;1.80;1.70;;;;;;;;;;4975440;28;59237;-70
2023/09/07 12:19:21;;;;;;;2.00;1.80;;;;;;;;;;4972843;28;59388;-70
2023/09/07 12:21:46;;;;;;;1.80;1.70;;;;;;;;;;4973760;28;59967;-69
2023/09/07 12:24:12;;;;;;;1.95;1.75;;;;;;;;;;4977653;28;59266;-70
2023/09/07 12:26:37;;;;;;;1.67;1.45;;;;;;;;;;4972313;28;59156;-70
2023/09/07 12:29:02;;;;;;;1.50;1.40;;;;;;;;;;4973126;28;58687;-70
2023/09/07 12:31:27;;;;;;;1.70;1.60;;;;;;;;;;4973797;28;59272;-69
2023/09/07 12:33:53;;;;;;;1.70;1.60;;;;;;;;;;4975545;28;59523;-70
2023/09/07 12:36:18;;;;;;;1.85;1.75;;;;;;;;;;4977578;28;59232;-70
2023/09/07 12:38:43;;;;;;;1.77;1.67;;;;;;;;;;4975667;28;60726;-69
2023/09/07 12:41:08;;;;;;;2.00;1.67;;;;;;;;;;4974298;28;59182;-72
2023/09/07 12:43:33;;;;;;;2.17;1.97;;;;;;;;;;4973182;28;59370;-69
2023/09/07 12:45:59;;;;;;;2.30;1.43;;;;;;;;;;4974742;28;59172;-70
2023/09/07 12:48:24;;;;;;;2.03;1.90;;;;;;;;;;4976991;28;58479;-70
2023/09/07 12:50:49;;;;;;;2.08;1.98;;;;;;;;;;4974783;28;59325;-70
2023/09/07 12:53:14;;;;;;;2.75;1.80;;;;;;;;;;4970001;28;59251;-70
2023/09/07 12:55:39;;;;;;;1.70;1.60;;;;;;;;;;4975731;28;58625;-70
2023/09/07 12:58:04;;;;;;;1.65;1.55;;;;;;;;;;4974618;28;59196;-70
2023/09/07 13:00:30;;;;;;;1.60;1.50;;;;;;;;;;4978838;28;59348;-69
2023/09/07 13:02:55;;;;;;;1.65;1.55;;;;;;;;;;4975961;28;59403;-71
2023/09/07 13:05:21;;;;;;;1.77;1.67;;;;;;;;;;4973343;28;59635;-70
2023/09/07 13:07:46;;;;;;;2.17;2.03;;;;;;;;;;4976440;28;58564;-70
2023/09/07 13:10:11;;;;;;;1.70;1.60;;;;;;;;;;4975990;28;60284;-71
2023/09/07 13:12:36;;;;;;;1.60;1.50;;;;;;;;;;4975861;28;59379;-70
2023/09/07 13:15:02;;;;;;;1.40;1.30;;;;;;;;;;4976013;28;59189;-70
2023/09/07 13:17:27;;;;;;;2.13;1.63;;;;;;;;;;4975831;28;60332;-69
2023/09/07 13:19:52;;;;;;;1.77;1.67;;;;;;;;;;4973878;28;59064;-70
2023/09/07 13:22:18;;;;;;;2.30;2.10;;;;;;;;;;4975340;28;59195;-70
2023/09/07 13:24:43;;;;;;;1.65;1.55;;;;;;;;;;4969754;28;59337;-70
2023/09/07 13:27:09;;;;;;;1.85;1.75;;;;;;;;;;4974032;28;59373;-69
2023/09/07 13:29:35;;;;;;;1.60;1.50;;;;;;;;;;4972620;28;60642;-69
2023/09/07 13:32:00;;;;;;;1.35;1.25;;;;;;;;;;4975104;28;59299;-70
2023/09/07 13:34:26;;;;;;;1.37;1.27;;;;;;;;;;4965803;28;59368;-71
2023/09/07 13:36:51;;;;;;;1.67;1.55;;;;;;;;;;4967292;28;60281;-72
2023/09/07 13:39:16;;;;;;;1.75;1.65;;;;;;;;;;4953325;28;59466;-70
2023/09/07 13:41:41;;;;;;;2.83;1.45;;;;;;;;;;4959067;28;59316;-69
2023/09/07 13:44:07;;;;;;;4.63;1.98;;;;;;;;;;4968249;28;59692;-68
2023/09/07 13:46:33;;;;;;;1.77;1.42;;;;;;;;;;4966145;28;58503;-72
2023/09/07 13:48:58;;;;;;;2.13;1.60;;;;;;;;;;4964089;28;59468;-69
2023/09/07 13:51:24;;;;;;;2.50;1.33;;;;;;;;;;4967131;28;59330;-77
2023/09/07 13:53:49;;;;;;;1.60;1.50;;;;;;;;;;4965665;28;59271;-71
2023/09/07 13:56:15;;;;;;;2.33;2.13;;;;;;;;;;4972190;28;60658;-71
2023/09/07 13:58:40;;;;;;;2.07;1.87;;;;;;;;;;4972646;28;59246;-74
2023/09/07 14:01:05;;;;;;;1.53;1.43;;;;;;;;;;4974363;28;59154;-70
2023/09/07 14:03:30;;;;;;;1.65;1.55;;;;;;;;;;4977908;28;60056;-71
2023/09/07 14:05:55;;;;;;;1.60;1.50;;;;;;;;;;4974064;28;58505;-72
2023/09/07 14:08:23;;;;;;;2.05;1.85;;;;;;;;;;4977408;28;60143;-73
2023/09/07 14:10:48;;;;;;;1.65;1.55;;;;;;;;;;4969883;28;59431;-71
2023/09/07 14:13:14;;;;;;;1.45;1.35;;;;;;;;;;4970900;28;59390;-75
2023/09/07 14:15:40;;;;;;;1.88;1.50;;;;;;;;;;4966633;28;60323;-75
2023/09/07 14:18:05;;;;;;;1.30;1.20;;;;;;;;;;4966108;28;59330;-78
2023/09/07 14:20:30;;;;;;;1.97;1.87;;;;;;;;;;4965749;28;59549;-69
2023/09/07 14:22:58;;;;;;;1.70;1.60;;;;;;;;;;4966246;28;59752;-74
2023/09/07 14:25:23;;;;;;;1.73;1.63;;;;;;;;;;4950170;28;59243;-72
2023/09/07 14:27:49;;;;;;;2.00;1.80;;;;;;;;;;4968967;28;59792;-71
2023/09/07 14:30:14;;;;;;;1.65;1.55;;;;;;;;;;4966965;28;59385;-74
2023/09/07 14:32:39;;;;;;;2.43;2.23;;;;;;;;;;4971703;28;59185;-72